Saturday, September 22, 2018, 10:35 PM EDT
Back to Local

KBOS, Boston Logan International

Location: Boston, MA, United States Lat: 42.367
Local Time: 10:35 PM EDT ( 2:35 GMT) Lon: -71.017
Time Zone: US/Eastern Elev: 19 ft

Show me the last for .
Show Decoded

2018-09-22 21:54 METAR KBOS 230154Z 33007KT 10SM FEW210 BKN250 16/06 A3022 RMK AO2 SLP232
                 T01610056 =
2018-09-22 20:54 METAR KBOS 230054Z 35006KT 10SM SCT210 OVC250 17/07 A3021 RMK AO2 SLP229
                 T01670072 =
2018-09-22 19:54 METAR KBOS 222354Z 36009KT 10SM BKN220 OVC250 18/08 A3020 RMK AO2 SLP226
                 T01780078 10217 20178 53022 =
2018-09-22 18:54 METAR KBOS 222254Z 32008KT 10SM BKN210 OVC250 19/06 A3017 RMK AO2 SLP217
                 T01890061 =
2018-09-22 17:54 METAR KBOS 222154Z 32010KT 10SM BKN210 OVC250 19/06 A3016 RMK AO2 SLP211
                 T01890061 =
2018-09-22 16:54 METAR KBOS 222054Z 29009KT 10SM FEW050 BKN210 OVC250 21/07 A3013 RMK AO2 SLP204
                 T02060067 51011 =
2018-09-22 15:54 METAR KBOS 221954Z 31011KT 10SM FEW045 FEW150 BKN250 21/08 A3013 RMK AO2 SLP201
                 VIRGA ALQDS T02060078 =
2018-09-22 14:54 METAR KBOS 221854Z 32011G18KT 10SM FEW045 FEW150 BKN250 21/08 A3011 RMK AO2
                 SLP196 VIRGA ALQDS T02110083 =
2018-09-22 13:54 METAR KBOS 221754Z 35006KT 10SM FEW045 FEW130 BKN250 22/08 A3010 RMK AO2 SLP193
                 T02170083 10222 20206 51015 =
2018-09-22 12:54 METAR KBOS 221654Z 33009G17KT 10SM FEW030 BKN130 BKN250 21/09 A3009 RMK AO2
                 SLP189 T02110089 =
2018-09-22 11:54 METAR KBOS 221554Z 36015G24KT 10SM FEW030 BKN130 BKN250 21/09 A3008 RMK AO2
                 SLP185 T02060089 =
2018-09-22 10:54 METAR KBOS 221454Z 33012G23KT 10SM FEW030 BKN130 BKN250 21/10 A3006 RMK AO2
                 SLP178 T02060100 51040 =
2018-09-22 09:54 METAR KBOS 221354Z 30010KT 10SM FEW030 BKN130 BKN250 21/12 A3003 RMK AO2 SLP169
                 T02110117 =
2018-09-22 08:54 METAR KBOS 221254Z 28014G20KT 10SM FEW030 SCT130 SCT250 21/12 A2999 RMK AO2
                 SLP154 T02110117 =
2018-09-22 07:54 METAR KBOS 221154Z 28015G23KT 10SM FEW030 SCT130 SCT250 22/12 A2994 RMK AO2
                 SLP138 60003 70003 T02220122 10228 20211 53033 =
2018-09-22 06:54 METAR KBOS 221054Z 24012KT 10SM FEW015 FEW030 BKN120 BKN250 22/19 A2990 RMK AO2
                 SLP125 T02170194 =
2018-09-22 05:54 METAR KBOS 220954Z 24012KT 10SM FEW012 SCT019 BKN110 22/19 A2987 RMK AO2 SLP114
                 T02170194 =
2018-09-22 04:54 METAR KBOS 220854Z 22014KT 10SM FEW060 SCT085 BKN110 21/19 A2984 RMK AO2
                 RAB26E35 SLP105 P0000 60003 T02110189 55008 =
2018-09-22 03:54 METAR KBOS 220754Z 22017G25KT 10SM SCT100 BKN110 21/19 A2983 RMK AO2 PK WND
                 23031/0711 RAB01E52 SLP102 P0003 T02110189 =
2018-09-22 03:16 METAR KBOS 220716Z 21022G31KT 5SM RA BR SCT023 BKN110 21/19 A2982 RMK AO2 PK WND
                 23031/0711 RAB01 P0002 T02110189 =
2018-09-22 02:54 METAR KBOS 220654Z 22023G31KT 10SM OVC023 23/18 A2984 RMK AO2 PK WND 22031/0651
                 PRESFR SLP104 T02280178 =
2018-09-22 02:01 METAR KBOS 220601Z 23019G26KT 10SM OVC027 22/17 A2987 RMK AO2 T02220167 =
2018-09-22 01:54 METAR KBOS 220554Z 22018G29KT 10SM SCT034 BKN140 22/17 A2987 RMK AO2 PK WND
                 20031/0518 SLP113 T02220167 10222 20189 56028 =
2018-09-22 00:54 METAR KBOS 220454Z 21017G25KT 10SM SCT034 BKN140 21/16 A2987 RMK AO2 PK WND
                 20028/0434 SLP115 T02110161 402280161 =
2018-09-21 23:54 METAR KBOS 220354Z 21018G25KT 10SM FEW037 21/17 A2993 RMK AO2 SLP133 T02060167 =
2018-09-21 22:54 METAR KBOS 220254Z 21015G21KT 10SM SCT043 BKN140 21/17 A2995 RMK AO2 SLP141
                 T02060167 58014 =

Support USWX by starting your Amazon purchase here.